Terminal Aerodrome Forecast
Issued by NWS

Home | Current Version | Previous Version | Text Only | Print | Product List | Glossary On
Versions: 1 2 3 4 5 6 7 8 9 10 11 12 13 14
672
FTPA31 PHFO 281720
TAFHJH
TAF
PHJH 281720Z 2818/2918 06010KT P6SM VCSH FEW025 BKN045 BKN080
     FM282100 05017KT P6SM VCSH FEW025 SCT045 BKN080
     FM290400 05010KT P6SM FEW025 SCT045
      AMD NOT SKED AFT 290400=

USA.gov is the U.S. government's official web portal to all federal, state and local government web resources and services.